Time;durP1;ratioP1;P1;durP2;ratioP2;P2;SDS_P1;SDS_P2;PMS_P1;PMS_P2;Temp;Humidity;BMP_temperature;BMP_pressure;BME280_temperature;BME280_humidity;BME280_pressure;Samples;Min_cycle;Max_cycle;Signal;HPM_P1;HPM_P2
2021/03/14 00:02:02;;;;;;;0.73;0.35;;;;;;;;;;4981441;28;20061;-63
2021/03/14 00:04:30;;;;;;;1.35;0.35;;;;;;;;;;4980913;28;20380;-63
2021/03/14 00:06:57;;;;;;;3.97;0.60;;;;;;;;;;4973177;28;20046;-62
2021/03/14 00:09:24;;;;;;;1.45;0.25;;;;;;;;;;4975750;28;20051;-63
2021/03/14 00:11:52;;;;;;;1.77;0.52;;;;;;;;;;5001205;28;20101;-63
2021/03/14 00:14:20;;;;;;;3.00;0.60;;;;;;;;;;4981495;28;20058;-64
2021/03/14 00:16:47;;;;;;;1.30;0.50;;;;;;;;;;4982265;28;20133;-63
2021/03/14 00:19:15;;;;;;;2.28;0.55;;;;;;;;;;4975926;28;20055;-63
2021/03/14 00:21:43;;;;;;;1.63;0.40;;;;;;;;;;4986077;28;20133;-63
2021/03/14 00:24:11;;;;;;;0.80;0.40;;;;;;;;;;4975596;28;20158;-63
2021/03/14 00:26:38;;;;;;;3.13;0.68;;;;;;;;;;4982942;28;20050;-63
2021/03/14 00:29:07;;;;;;;4.35;0.50;;;;;;;;;;4978055;28;20464;-62
2021/03/14 00:31:35;;;;;;;2.03;0.50;;;;;;;;;;4981787;28;20046;-63
2021/03/14 00:34:03;;;;;;;2.40;0.40;;;;;;;;;;4987513;28;20089;-63
2021/03/14 00:36:30;;;;;;;0.28;0.25;;;;;;;;;;4981122;28;20449;-64
2021/03/14 00:38:57;;;;;;;1.02;0.38;;;;;;;;;;4981704;28;20054;-63
2021/03/14 00:41:25;;;;;;;1.45;0.57;;;;;;;;;;4976831;28;20058;-64
2021/03/14 00:43:52;;;;;;;0.98;0.32;;;;;;;;;;4989824;28;20577;-63
2021/03/14 00:46:20;;;;;;;0.90;0.40;;;;;;;;;;4989143;28;20049;-63
2021/03/14 00:48:48;;;;;;;1.23;0.30;;;;;;;;;;4993379;28;20104;-64
2021/03/14 00:51:15;;;;;;;1.92;0.65;;;;;;;;;;4991262;28;20138;-64
2021/03/14 00:53:43;;;;;;;0.55;0.40;;;;;;;;;;4980760;28;20047;-64
2021/03/14 00:56:10;;;;;;;0.93;0.32;;;;;;;;;;4978512;28;20479;-64
2021/03/14 00:58:38;;;;;;;0.20;0.20;;;;;;;;;;4983464;28;20046;-62
2021/03/14 01:01:06;;;;;;;0.60;0.30;;;;;;;;;;4984628;28;20446;-62
2021/03/14 01:03:34;;;;;;;0.82;0.40;;;;;;;;;;4980434;28;20443;-63
2021/03/14 01:06:02;;;;;;;1.77;0.40;;;;;;;;;;4988094;28;20176;-62
2021/03/14 01:08:31;;;;;;;0.52;0.22;;;;;;;;;;4983688;28;20073;-63
2021/03/14 01:10:58;;;;;;;0.40;0.20;;;;;;;;;;4992442;28;20118;-63
2021/03/14 01:13:26;;;;;;;2.65;0.40;;;;;;;;;;4985092;28;20129;-63
2021/03/14 01:15:53;;;;;;;0.25;0.20;;;;;;;;;;4976336;28;20093;-63
2021/03/14 01:18:20;;;;;;;1.25;0.40;;;;;;;;;;4983871;28;20137;-63
2021/03/14 01:20:48;;;;;;;0.82;0.30;;;;;;;;;;4981124;28;20122;-63
2021/03/14 01:23:16;;;;;;;0.45;0.30;;;;;;;;;;4989729;28;20046;-63
2021/03/14 01:25:44;;;;;;;0.60;0.40;;;;;;;;;;4986315;28;20089;-63
2021/03/14 01:28:11;;;;;;;1.35;0.60;;;;;;;;;;4988296;28;20522;-63
2021/03/14 01:30:38;;;;;;;2.40;0.40;;;;;;;;;;4985888;28;20490;-63
2021/03/14 01:33:05;;;;;;;2.10;0.32;;;;;;;;;;4986190;28;20082;-63
2021/03/14 01:35:33;;;;;;;0.93;0.30;;;;;;;;;;4984756;28;20053;-63
2021/03/14 01:38:00;;;;;;;1.15;0.30;;;;;;;;;;4979527;28;20139;-63
2021/03/14 01:40:28;;;;;;;0.25;0.20;;;;;;;;;;4983137;28;20551;-62
2021/03/14 01:42:56;;;;;;;0.25;0.20;;;;;;;;;;4988265;28;20141;-62
2021/03/14 01:45:24;;;;;;;0.52;0.22;;;;;;;;;;4981910;28;20185;-63
2021/03/14 01:47:52;;;;;;;1.23;0.30;;;;;;;;;;4989635;28;20092;-63
2021/03/14 01:50:20;;;;;;;1.95;0.20;;;;;;;;;;4976245;28;20077;-63
2021/03/14 01:52:48;;;;;;;0.20;0.20;;;;;;;;;;4989220;28;20086;-63
2021/03/14 01:55:16;;;;;;;0.35;0.20;;;;;;;;;;4988556;28;20118;-63
2021/03/14 01:57:45;;;;;;;1.25;0.30;;;;;;;;;;4990610;28;20085;-63
2021/03/14 02:00:14;;;;;;;1.38;0.50;;;;;;;;;;4981083;28;20125;-63
2021/03/14 02:02:41;;;;;;;0.90;0.30;;;;;;;;;;4989991;28;20253;-64
2021/03/14 02:05:10;;;;;;;0.40;0.22;;;;;;;;;;4995141;28;20050;-63
2021/03/14 02:07:39;;;;;;;0.47;0.25;;;;;;;;;;4991757;28;20529;-63
2021/03/14 02:10:07;;;;;;;0.30;0.17;;;;;;;;;;4975961;28;20105;-64
2021/03/14 02:12:37;;;;;;;0.57;0.30;;;;;;;;;;4979360;28;20068;-63
2021/03/14 02:15:07;;;;;;;0.10;0.10;;;;;;;;;;4992325;28;20053;-63
2021/03/14 02:17:36;;;;;;;0.20;0.20;;;;;;;;;;4994912;28;20046;-64
2021/03/14 02:20:08;;;;;;;0.60;0.22;;;;;;;;;;4989147;28;20050;-64
2021/03/14 02:22:36;;;;;;;0.20;0.20;;;;;;;;;;4990212;28;20060;-62
2021/03/14 02:25:11;;;;;;;0.40;0.17;;;;;;;;;;4978599;28;20062;-62
2021/03/14 02:27:40;;;;;;;0.38;0.25;;;;;;;;;;4982558;28;20047;-64
2021/03/14 02:30:09;;;;;;;2.60;0.20;;;;;;;;;;4974511;28;20097;-62
2021/03/14 02:32:36;;;;;;;0.10;0.10;;;;;;;;;;4980139;28;20359;-63
2021/03/14 02:35:05;;;;;;;0.22;0.20;;;;;;;;;;4978466;28;20137;-64
2021/03/14 02:37:33;;;;;;;0.22;0.22;;;;;;;;;;4989900;28;20082;-64
2021/03/14 02:40:01;;;;;;;0.10;0.10;;;;;;;;;;4983266;28;20511;-64
2021/03/14 02:42:29;;;;;;;0.10;0.10;;;;;;;;;;4981148;28;20054;-64
2021/03/14 02:44:58;;;;;;;0.40;0.22;;;;;;;;;;4981921;28;20559;-64
2021/03/14 02:47:27;;;;;;;0.20;0.20;;;;;;;;;;4986230;28;20133;-64
2021/03/14 02:50:03;;;;;;;0.10;0.10;;;;;;;;;;4992157;28;20046;-64
2021/03/14 02:52:30;;;;;;;0.20;0.20;;;;;;;;;;4985473;28;20487;-63
2021/03/14 02:54:58;;;;;;;0.20;0.20;;;;;;;;;;4991899;28;20137;-64
2021/03/14 02:57:26;;;;;;;0.10;0.10;;;;;;;;;;4981291;28;20095;-65
2021/03/14 02:59:54;;;;;;;0.10;0.10;;;;;;;;;;4978955;28;20046;-64
2021/03/14 03:02:23;;;;;;;0.17;0.17;;;;;;;;;;4978472;28;20062;-63
2021/03/14 03:04:51;;;;;;;0.13;0.10;;;;;;;;;;4985572;28;20046;-64
2021/03/14 03:07:20;;;;;;;0.57;0.10;;;;;;;;;;4988856;28;20042;-64
2021/03/14 03:09:50;;;;;;;0.20;0.20;;;;;;;;;;4987969;28;20054;-63
2021/03/14 03:12:17;;;;;;;0.10;0.10;;;;;;;;;;4985608;28;20046;-63
2021/03/14 03:14:45;;;;;;;0.20;0.20;;;;;;;;;;4987943;28;20046;-64
2021/03/14 03:17:12;;;;;;;0.22;0.22;;;;;;;;;;4986279;28;20054;-63
2021/03/14 03:19:42;;;;;;;0.13;0.13;;;;;;;;;;4989046;28;20446;-64
2021/03/14 03:22:09;;;;;;;0.10;0.10;;;;;;;;;;4981548;28;20582;-63
2021/03/14 03:24:37;;;;;;;0.20;0.20;;;;;;;;;;4974669;28;20051;-65
2021/03/14 03:27:05;;;;;;;0.50;0.20;;;;;;;;;;4981120;28;20109;-64
2021/03/14 03:29:32;;;;;;;0.40;0.40;;;;;;;;;;4977613;28;20082;-63
2021/03/14 03:31:59;;;;;;;0.47;0.20;;;;;;;;;;4989522;28;20043;-63
2021/03/14 03:34:27;;;;;;;0.20;0.20;;;;;;;;;;4987168;28;20050;-63
2021/03/14 03:36:55;;;;;;;0.20;0.20;;;;;;;;;;4989354;28;20459;-63
2021/03/14 03:39:22;;;;;;;0.10;0.10;;;;;;;;;;4991034;28;20524;-64
2021/03/14 03:41:52;;;;;;;0.20;0.20;;;;;;;;;;4988559;28;20430;-64
2021/03/14 03:44:22;;;;;;;0.20;0.20;;;;;;;;;;4989438;28;20097;-63
2021/03/14 03:46:50;;;;;;;0.50;0.20;;;;;;;;;;4974347;28;20470;-63
2021/03/14 03:49:18;;;;;;;0.10;0.10;;;;;;;;;;4978268;28;20051;-63
2021/03/14 03:51:45;;;;;;;0.13;0.13;;;;;;;;;;4984681;28;20137;-63
2021/03/14 03:54:15;;;;;;;1.85;0.30;;;;;;;;;;4978354;28;20049;-64
2021/03/14 03:56:42;;;;;;;0.10;0.10;;;;;;;;;;4979645;28;20049;-63
2021/03/14 03:59:10;;;;;;;0.10;0.10;;;;;;;;;;4971879;28;20046;-63
2021/03/14 04:01:38;;;;;;;0.10;0.10;;;;;;;;;;4984291;28;20514;-64
2021/03/14 04:04:07;;;;;;;0.10;0.10;;;;;;;;;;4988196;28;20043;-64
2021/03/14 04:06:35;;;;;;;0.13;0.13;;;;;;;;;;4976803;28;20078;-63
2021/03/14 04:09:03;;;;;;;0.10;0.10;;;;;;;;;;4983888;28;20058;-63
2021/03/14 04:11:31;;;;;;;3.25;0.30;;;;;;;;;;4981486;28;20122;-63
2021/03/14 04:13:59;;;;;;;1.98;0.20;;;;;;;;;;4974214;28;20054;-63
2021/03/14 04:16:27;;;;;;;0.10;0.10;;;;;;;;;;4984594;28;20169;-63
2021/03/14 04:18:57;;;;;;;0.10;0.10;;;;;;;;;;4985436;28;20050;-63
2021/03/14 04:21:25;;;;;;;0.40;0.20;;;;;;;;;;4981154;28;20074;-64
2021/03/14 04:23:53;;;;;;;0.10;0.10;;;;;;;;;;4990782;28;20138;-63
2021/03/14 04:26:21;;;;;;;0.55;0.20;;;;;;;;;;4983576;28;20062;-63
2021/03/14 04:28:51;;;;;;;0.93;0.10;;;;;;;;;;4980762;28;20138;-63
2021/03/14 04:31:19;;;;;;;0.20;0.20;;;;;;;;;;4986354;28;20133;-63
2021/03/14 04:33:47;;;;;;;0.17;0.17;;;;;;;;;;4983063;28;20398;-63
2021/03/14 04:36:15;;;;;;;0.20;0.20;;;;;;;;;;4988106;28;20116;-63
2021/03/14 04:38:43;;;;;;;0.20;0.17;;;;;;;;;;4990233;28;20504;-64
2021/03/14 04:41:11;;;;;;;1.30;0.20;;;;;;;;;;4982450;28;20133;-64
2021/03/14 04:43:38;;;;;;;0.52;0.20;;;;;;;;;;4983492;28;20633;-64
2021/03/14 04:46:07;;;;;;;0.20;0.20;;;;;;;;;;4977934;28;20051;-64
2021/03/14 04:48:35;;;;;;;0.20;0.20;;;;;;;;;;4988726;28;20042;-64
2021/03/14 04:51:05;;;;;;;0.20;0.20;;;;;;;;;;4974517;28;20134;-64
2021/03/14 04:53:34;;;;;;;0.20;0.20;;;;;;;;;;4982593;28;20398;-64
2021/03/14 04:56:01;;;;;;;0.20;0.20;;;;;;;;;;4977977;28;20417;-65
2021/03/14 04:58:29;;;;;;;0.28;0.28;;;;;;;;;;4977737;28;20050;-64
2021/03/14 05:00:58;;;;;;;0.17;0.17;;;;;;;;;;4985421;28;20054;-63
2021/03/14 05:03:26;;;;;;;0.47;0.47;;;;;;;;;;4988472;28;20207;-63
2021/03/14 05:05:54;;;;;;;0.35;0.15;;;;;;;;;;4988056;28;20133;-63
2021/03/14 05:08:23;;;;;;;0.22;0.22;;;;;;;;;;4986895;28;20138;-63
2021/03/14 05:10:50;;;;;;;2.38;0.40;;;;;;;;;;4975651;28;20137;-63
2021/03/14 05:13:18;;;;;;;0.43;0.20;;;;;;;;;;4979864;28;20566;-63
2021/03/14 05:15:49;;;;;;;0.93;0.35;;;;;;;;;;4972910;28;20086;-64
2021/03/14 05:18:17;;;;;;;0.95;0.20;;;;;;;;;;4976974;28;20143;-65
2021/03/14 05:20:46;;;;;;;0.10;0.10;;;;;;;;;;4981839;28;20046;-63
2021/03/14 05:23:13;;;;;;;0.20;0.20;;;;;;;;;;4982654;28;20085;-63
2021/03/14 05:25:42;;;;;;;0.57;0.20;;;;;;;;;;4980780;28;20082;-63
2021/03/14 05:28:10;;;;;;;0.30;0.30;;;;;;;;;;4976956;28;20075;-63
2021/03/14 05:30:37;;;;;;;0.30;0.20;;;;;;;;;;4995729;28;20113;-64
2021/03/14 05:33:11;;;;;;;1.30;0.40;;;;;;;;;;4986857;28;20137;-64
2021/03/14 05:35:39;;;;;;;0.65;0.30;;;;;;;;;;4992854;28;20402;-64
2021/03/14 05:38:08;;;;;;;0.40;0.38;;;;;;;;;;4993482;28;20056;-64
2021/03/14 05:40:36;;;;;;;0.20;0.20;;;;;;;;;;4980423;28;20493;-64
2021/03/14 05:43:04;;;;;;;0.35;0.10;;;;;;;;;;4979412;28;20069;-64
2021/03/14 05:45:33;;;;;;;0.20;0.20;;;;;;;;;;4977930;28;20046;-64
2021/03/14 05:48:00;;;;;;;1.15;0.40;;;;;;;;;;4987423;28;20133;-64
2021/03/14 05:50:29;;;;;;;0.30;0.30;;;;;;;;;;4993210;28;20054;-63
2021/03/14 05:52:56;;;;;;;0.98;0.30;;;;;;;;;;4984874;28;20129;-63
2021/03/14 05:55:26;;;;;;;1.88;0.40;;;;;;;;;;4992835;28;20070;-63
2021/03/14 05:57:54;;;;;;;0.40;0.30;;;;;;;;;;4991945;28;20058;-63
2021/03/14 06:00:25;;;;;;;0.43;0.30;;;;;;;;;;4992106;28;20473;-63
2021/03/14 06:02:55;;;;;;;0.38;0.30;;;;;;;;;;4985476;28;20054;-63
2021/03/14 06:05:24;;;;;;;1.20;0.40;;;;;;;;;;4992343;28;20204;-63
2021/03/14 06:07:51;;;;;;;0.30;0.30;;;;;;;;;;4989271;28;20050;-63
2021/03/14 06:10:19;;;;;;;0.60;0.30;;;;;;;;;;4983450;28;20093;-63
2021/03/14 06:12:48;;;;;;;1.08;0.30;;;;;;;;;;4991855;28;20053;-63
2021/03/14 06:15:16;;;;;;;1.20;0.57;;;;;;;;;;4991331;28;20555;-64
2021/03/14 06:17:44;;;;;;;0.88;0.45;;;;;;;;;;4989958;28;20054;-63
2021/03/14 06:20:32;;;;;;;0.80;0.50;;;;;;;;;;4987687;28;20059;-64
2021/03/14 06:23:05;;;;;;;0.60;0.50;;;;;;;;;;4987459;28;20125;-63
2021/03/14 06:25:33;;;;;;;0.50;0.40;;;;;;;;;;4988233;28;20083;-63
2021/03/14 06:28:01;;;;;;;2.22;0.65;;;;;;;;;;4981306;28;20502;-64
2021/03/14 06:30:28;;;;;;;0.50;0.50;;;;;;;;;;4984216;28;20125;-63
2021/03/14 06:33:03;;;;;;;2.08;0.60;;;;;;;;;;4982039;28;20418;-63
2021/03/14 06:35:37;;;;;;;0.40;0.40;;;;;;;;;;4986138;28;20081;-63
2021/03/14 06:38:21;;;;;;;0.68;0.38;;;;;;;;;;4974818;28;20062;-63
2021/03/14 06:40:49;;;;;;;0.50;0.40;;;;;;;;;;4982953;28;20091;-63
2021/03/14 06:43:17;;;;;;;0.52;0.30;;;;;;;;;;4979418;28;20443;-63
2021/03/14 06:45:46;;;;;;;0.73;0.38;;;;;;;;;;4981859;28;20046;-64
2021/03/14 06:48:14;;;;;;;1.92;0.28;;;;;;;;;;4979060;28;20098;-63
2021/03/14 06:50:42;;;;;;;0.75;0.55;;;;;;;;;;4979411;28;20070;-63
2021/03/14 06:53:11;;;;;;;5.15;2.05;;;;;;;;;;4979704;28;20133;-64
2021/03/14 06:55:39;;;;;;;2.80;0.43;;;;;;;;;;4976892;28;20335;-63
2021/03/14 06:58:19;;;;;;;0.50;0.15;;;;;;;;;;4985338;28;20406;-63
2021/03/14 07:01:03;;;;;;;2.15;0.60;;;;;;;;;;4979749;28;20141;-63
2021/03/14 07:03:31;;;;;;;0.63;0.50;;;;;;;;;;4982904;28;20137;-63
2021/03/14 07:06:13;;;;;;;0.82;0.30;;;;;;;;;;4978103;28;20055;-63
2021/03/14 07:08:40;;;;;;;0.70;0.40;;;;;;;;;;4976512;28;20064;-64
2021/03/14 07:11:08;;;;;;;1.15;0.40;;;;;;;;;;4987461;28;20112;-63
2021/03/14 07:13:36;;;;;;;1.65;0.30;;;;;;;;;;4986345;28;20050;-63
2021/03/14 07:16:04;;;;;;;1.98;0.40;;;;;;;;;;4986328;28;20684;-64
2021/03/14 07:18:36;;;;;;;2.05;0.52;;;;;;;;;;4987429;28;20046;-63
2021/03/14 07:21:23;;;;;;;0.60;0.45;;;;;;;;;;4986196;28;20085;-64
2021/03/14 07:23:50;;;;;;;1.25;0.40;;;;;;;;;;4986043;28;20129;-64
2021/03/14 07:26:32;;;;;;;0.60;0.30;;;;;;;;;;4985828;28;20431;-64
2021/03/14 07:29:01;;;;;;;1.00;0.28;;;;;;;;;;4984094;28;20073;-63
2021/03/14 07:31:28;;;;;;;0.50;0.40;;;;;;;;;;4987178;28;20383;-65
2021/03/14 07:33:56;;;;;;;0.22;0.22;;;;;;;;;;4984168;28;20457;-65
2021/03/14 07:36:24;;;;;;;0.35;0.32;;;;;;;;;;4986785;28;20124;-64
2021/03/14 07:38:51;;;;;;;1.30;0.40;;;;;;;;;;4986031;28;20054;-64
2021/03/14 07:41:18;;;;;;;0.35;0.30;;;;;;;;;;4986301;28;20043;-64
2021/03/14 07:43:46;;;;;;;0.47;0.40;;;;;;;;;;4985917;28;20091;-64
2021/03/14 07:46:14;;;;;;;0.22;0.22;;;;;;;;;;4987270;28;20051;-63
2021/03/14 07:48:42;;;;;;;0.30;0.30;;;;;;;;;;4985420;28;20468;-64
2021/03/14 07:51:12;;;;;;;3.75;0.40;;;;;;;;;;4987686;28;20054;-63
2021/03/14 07:53:48;;;;;;;0.40;0.40;;;;;;;;;;4987816;28;20054;-64
2021/03/14 07:56:15;;;;;;;0.25;0.25;;;;;;;;;;4987995;28;20447;-64
2021/03/14 07:58:43;;;;;;;0.57;0.50;;;;;;;;;;4987280;28;20136;-64
2021/03/14 08:01:24;;;;;;;0.30;0.30;;;;;;;;;;4988607;28;20141;-64
2021/03/14 08:03:52;;;;;;;0.40;0.40;;;;;;;;;;4990290;28;20061;-64
2021/03/14 08:06:35;;;;;;;0.80;0.40;;;;;;;;;;4988310;28;20074;-64
2021/03/14 08:09:02;;;;;;;0.40;0.32;;;;;;;;;;4979217;28;20050;-63
2021/03/14 08:11:29;;;;;;;1.75;0.30;;;;;;;;;;4986227;28;20138;-64
2021/03/14 08:13:57;;;;;;;0.30;0.30;;;;;;;;;;4999792;28;20435;-64
2021/03/14 08:16:25;;;;;;;0.52;0.38;;;;;;;;;;4995727;28;20380;-64
2021/03/14 08:18:54;;;;;;;1.48;0.50;;;;;;;;;;4990482;28;20130;-63
2021/03/14 08:21:37;;;;;;;2.08;0.50;;;;;;;;;;4988403;28;20046;-65
2021/03/14 08:24:13;;;;;;;1.45;0.52;;;;;;;;;;4985137;28;20046;-65
2021/03/14 08:26:40;;;;;;;0.22;0.20;;;;;;;;;;4986910;28;20061;-64
2021/03/14 08:29:09;;;;;;;0.60;0.50;;;;;;;;;;4983023;28;20098;-74
2021/03/14 08:31:38;;;;;;;0.75;0.50;;;;;;;;;;4986314;28;20054;-70
2021/03/14 08:34:06;;;;;;;1.20;0.50;;;;;;;;;;4987655;28;20121;-70
2021/03/14 08:36:34;;;;;;;0.75;0.50;;;;;;;;;;4988447;28;20125;-71
2021/03/14 08:39:02;;;;;;;0.95;0.40;;;;;;;;;;4990218;28;20093;-72
2021/03/14 08:41:48;;;;;;;0.30;0.30;;;;;;;;;;4990261;28;20061;-72
2021/03/14 08:44:15;;;;;;;;;;;;;;;;;;4985430;28;20121;-72
2021/03/14 08:47:06;;;;;;;0.82;0.55;;;;;;;;;;4984035;28;19925;-71
2021/03/14 08:49:39;;;;;;;0.40;0.40;;;;;;;;;;4985102;28;20136;-71
2021/03/14 08:52:07;;;;;;;0.40;0.40;;;;;;;;;;4985552;28;20148;-72
2021/03/14 08:54:37;;;;;;;1.10;0.50;;;;;;;;;;4985914;28;20045;-72
2021/03/14 08:57:06;;;;;;;0.40;0.40;;;;;;;;;;4986190;28;20046;-71
2021/03/14 08:59:33;;;;;;;1.23;0.35;;;;;;;;;;4986034;28;20125;-72
2021/03/14 09:02:02;;;;;;;0.52;0.45;;;;;;;;;;4991057;28;20127;-71
2021/03/14 09:04:31;;;;;;;1.50;0.50;;;;;;;;;;4988010;28;20513;-71
2021/03/14 09:07:03;;;;;;;2.42;1.00;;;;;;;;;;4990830;28;20137;-71
2021/03/14 09:09:30;;;;;;;0.90;0.52;;;;;;;;;;4989724;28;20502;-71
2021/03/14 09:11:58;;;;;;;0.70;0.52;;;;;;;;;;4990522;28;20133;-71
2021/03/14 09:14:30;;;;;;;2.67;0.60;;;;;;;;;;4990552;28;20050;-72
2021/03/14 09:16:58;;;;;;;2.03;0.68;;;;;;;;;;4997188;28;20331;-72
2021/03/14 09:19:27;;;;;;;1.52;0.65;;;;;;;;;;4988160;28;20142;-71
2021/03/14 09:21:56;;;;;;;1.90;0.80;;;;;;;;;;4987981;28;20548;-72
2021/03/14 09:24:40;;;;;;;0.80;0.70;;;;;;;;;;4987475;28;20177;-73
2021/03/14 09:27:09;;;;;;;1.08;0.90;;;;;;;;;;4985177;28;20490;-72
2021/03/14 09:29:38;;;;;;;1.88;0.85;;;;;;;;;;4997084;28;20120;-71
2021/03/14 09:32:14;;;;;;;3.00;1.00;;;;;;;;;;5010259;28;20113;-73
2021/03/14 09:34:42;;;;;;;2.80;0.85;;;;;;;;;;4989927;28;20104;-72
2021/03/14 09:37:09;;;;;;;1.45;0.60;;;;;;;;;;5000467;28;20085;-71
2021/03/14 09:39:37;;;;;;;2.80;0.90;;;;;;;;;;4990914;28;20070;-72
2021/03/14 09:42:06;;;;;;;1.30;0.80;;;;;;;;;;4992340;28;20064;-72
2021/03/14 09:44:33;;;;;;;1.92;0.85;;;;;;;;;;4991121;28;20057;-66
2021/03/14 09:47:01;;;;;;;2.88;1.00;;;;;;;;;;4985827;28;20087;-66
2021/03/14 09:49:30;;;;;;;1.02;0.82;;;;;;;;;;4992950;28;20054;-65
2021/03/14 09:51:58;;;;;;;1.50;0.75;;;;;;;;;;4980719;28;20620;-67
2021/03/14 09:54:26;;;;;;;1.65;0.77;;;;;;;;;;4982233;28;20144;-65
2021/03/14 09:56:54;;;;;;;2.45;0.73;;;;;;;;;;4987414;28;20153;-65
2021/03/14 09:59:23;;;;;;;1.40;0.63;;;;;;;;;;4981946;28;20571;-65
2021/03/14 10:01:51;;;;;;;3.72;0.98;;;;;;;;;;4981398;28;20053;-64
2021/03/14 10:04:19;;;;;;;1.40;0.60;;;;;;;;;;4980832;28;20554;-64
2021/03/14 10:06:47;;;;;;;2.55;0.80;;;;;;;;;;4981240;28;20042;-64
2021/03/14 10:09:21;;;;;;;2.17;0.90;;;;;;;;;;4980550;28;20047;-64
2021/03/14 10:11:49;;;;;;;1.60;0.70;;;;;;;;;;4976450;28;20138;-64
2021/03/14 10:14:17;;;;;;;2.60;0.80;;;;;;;;;;4983189;28;20498;-64
2021/03/14 10:16:45;;;;;;;1.38;0.85;;;;;;;;;;4980315;28;20125;-65
2021/03/14 10:19:13;;;;;;;2.45;0.80;;;;;;;;;;4977507;28;20052;-64
2021/03/14 10:21:45;;;;;;;4.38;1.17;;;;;;;;;;4978779;28;20294;-64
2021/03/14 10:24:18;;;;;;;3.13;0.93;;;;;;;;;;4981260;28;20450;-65
2021/03/14 10:26:55;;;;;;;2.20;0.80;;;;;;;;;;4981915;28;20517;-66
2021/03/14 10:29:23;;;;;;;1.85;0.75;;;;;;;;;;4979028;28;20050;-65
2021/03/14 10:31:51;;;;;;;4.05;0.80;;;;;;;;;;4979747;28;20046;-65
2021/03/14 10:34:20;;;;;;;1.42;0.60;;;;;;;;;;4981781;28;20126;-65
2021/03/14 10:36:47;;;;;;;3.97;0.85;;;;;;;;;;4982902;28;20109;-65
2021/03/14 10:39:15;;;;;;;2.13;0.80;;;;;;;;;;4981679;28;20467;-65
2021/03/14 10:41:44;;;;;;;1.23;0.88;;;;;;;;;;4980340;28;20136;-65
2021/03/14 10:44:11;;;;;;;1.83;0.82;;;;;;;;;;4982781;28;20046;-65
2021/03/14 10:46:39;;;;;;;1.40;0.82;;;;;;;;;;4981783;28;20502;-64
2021/03/14 10:49:08;;;;;;;1.95;0.80;;;;;;;;;;4974579;28;20502;-65
2021/03/14 10:51:37;;;;;;;1.90;1.00;;;;;;;;;;4985612;28;20116;-64
2021/03/14 10:54:05;;;;;;;1.75;1.02;;;;;;;;;;4983052;28;20906;-64
2021/03/14 10:56:33;;;;;;;7.68;1.10;;;;;;;;;;4983697;28;20054;-65
2021/03/14 10:59:01;;;;;;;2.78;0.65;;;;;;;;;;4984379;28;20055;-65
2021/03/14 11:01:35;;;;;;;3.50;1.17;;;;;;;;;;4988635;28;20132;-65
2021/03/14 11:04:05;;;;;;;5.95;1.30;;;;;;;;;;4983866;28;20042;-65
2021/03/14 11:06:33;;;;;;;7.90;1.00;;;;;;;;;;4986567;28;20050;-65
2021/03/14 11:09:04;;;;;;;3.63;1.10;;;;;;;;;;4989306;28;20042;-65
2021/03/14 11:11:42;;;;;;;1.70;0.88;;;;;;;;;;4986491;28;20046;-65
2021/03/14 11:14:26;;;;;;;3.65;1.08;;;;;;;;;;4974614;28;20042;-65
2021/03/14 11:17:12;;;;;;;2.75;0.80;;;;;;;;;;4984612;28;20085;-65
2021/03/14 11:19:42;;;;;;;2.53;0.70;;;;;;;;;;4986313;28;20050;-65
2021/03/14 11:22:10;;;;;;;1.85;0.80;;;;;;;;;;4987730;28;20056;-65
2021/03/14 11:24:38;;;;;;;1.75;0.60;;;;;;;;;;4990280;28;20066;-66
2021/03/14 11:27:34;;;;;;;1.98;0.70;;;;;;;;;;4989458;28;20086;-65
2021/03/14 11:30:01;;;;;;;6.22;0.88;;;;;;;;;;4985047;28;20508;-65
2021/03/14 11:32:29;;;;;;;1.80;0.80;;;;;;;;;;4985353;28;20070;-65
2021/03/14 11:34:56;;;;;;;1.48;0.70;;;;;;;;;;4988491;28;20046;-65
2021/03/14 11:37:26;;;;;;;1.33;0.80;;;;;;;;;;4987421;28;20058;-66
2021/03/14 11:39:53;;;;;;;2.78;1.00;;;;;;;;;;4989928;28;20112;-65
2021/03/14 11:42:21;;;;;;;3.58;1.23;;;;;;;;;;4985780;28;20129;-65
2021/03/14 11:44:48;;;;;;;2.35;0.90;;;;;;;;;;4988994;28;20054;-65
2021/03/14 11:47:16;;;;;;;2.55;0.80;;;;;;;;;;4986437;28;20443;-65
2021/03/14 11:49:44;;;;;;;2.03;0.77;;;;;;;;;;4988863;28;20046;-65
2021/03/14 11:52:11;;;;;;;3.90;0.98;;;;;;;;;;4989629;28;20082;-65
2021/03/14 11:54:43;;;;;;;4.78;0.90;;;;;;;;;;4989336;28;20042;-64
2021/03/14 11:57:11;;;;;;;3.42;1.10;;;;;;;;;;4989323;28;20114;-65
2021/03/14 11:59:39;;;;;;;1.52;0.65;;;;;;;;;;4989005;28;20474;-65
2021/03/14 12:02:07;;;;;;;3.10;0.90;;;;;;;;;;4989194;28;20046;-65
2021/03/14 12:04:48;;;;;;;1.50;0.60;;;;;;;;;;2086842;28;10023731;-65
2021/03/14 12:07:16;;;;;;;4.68;1.00;;;;;;;;;;3619654;28;10001591;-65
2021/03/14 12:09:44;;;;;;;3.78;0.80;;;;;;;;;;4994359;28;20121;-65
2021/03/14 12:12:12;;;;;;;3.15;0.90;;;;;;;;;;5002788;28;20099;-65
2021/03/14 12:14:40;;;;;;;2.35;0.70;;;;;;;;;;4993140;28;20486;-66
2021/03/14 12:17:08;;;;;;;0.90;0.50;;;;;;;;;;4995139;28;20089;-65
2021/03/14 12:19:35;;;;;;;4.30;0.93;;;;;;;;;;4997121;28;20078;-65
2021/03/14 12:22:03;;;;;;;3.63;1.02;;;;;;;;;;4996310;28;20046;-64
2021/03/14 12:24:30;;;;;;;1.90;0.80;;;;;;;;;;4993070;28;20137;-65
2021/03/14 12:27:10;;;;;;;1.65;0.80;;;;;;;;;;4997464;28;20046;-65
2021/03/14 12:29:38;;;;;;;2.88;1.00;;;;;;;;;;5009450;28;20046;-64
2021/03/14 12:32:06;;;;;;;2.67;0.80;;;;;;;;;;4993849;28;20500;-64
2021/03/14 12:34:34;;;;;;;2.65;0.80;;;;;;;;;;5006242;28;20119;-64
2021/03/14 12:37:02;;;;;;;3.35;0.90;;;;;;;;;;4997112;28;20449;-64
2021/03/14 12:39:29;;;;;;;1.08;0.73;;;;;;;;;;5002181;28;20792;-64
2021/03/14 12:41:57;;;;;;;1.25;0.90;;;;;;;;;;4998774;28;20121;-65
2021/03/14 12:44:25;;;;;;;1.45;0.80;;;;;;;;;;4995099;28;20490;-65
2021/03/14 12:46:53;;;;;;;2.88;0.77;;;;;;;;;;4997031;28;20061;-64
2021/03/14 12:49:20;;;;;;;4.97;1.33;;;;;;;;;;4985749;28;20450;-64
2021/03/14 12:51:48;;;;;;;1.98;0.77;;;;;;;;;;4994409;28;20058;-64
2021/03/14 12:54:15;;;;;;;2.28;0.70;;;;;;;;;;4993039;28;20054;-65
2021/03/14 12:56:42;;;;;;;3.22;1.10;;;;;;;;;;5009867;28;20559;-64
2021/03/14 12:59:10;;;;;;;2.47;0.90;;;;;;;;;;4996217;28;20050;-65
2021/03/14 13:01:38;;;;;;;3.85;1.20;;;;;;;;;;5009233;28;20060;-64
2021/03/14 13:04:06;;;;;;;2.47;1.15;;;;;;;;;;4984771;28;20128;-64
2021/03/14 13:06:34;;;;;;;1.40;0.90;;;;;;;;;;4993528;28;20054;-64
2021/03/14 13:09:02;;;;;;;2.28;0.80;;;;;;;;;;4997248;28;20113;-64
2021/03/14 13:11:29;;;;;;;2.40;1.00;;;;;;;;;;4970781;28;20117;-64
2021/03/14 13:13:57;;;;;;;4.20;1.52;;;;;;;;;;4987210;28;20054;-65
2021/03/14 13:16:24;;;;;;;3.67;1.17;;;;;;;;;;4987336;28;20078;-64
2021/03/14 13:18:53;;;;;;;8.05;1.20;;;;;;;;;;4994843;28;20053;-64
2021/03/14 13:21:21;;;;;;;2.83;0.65;;;;;;;;;;4989039;28;20082;-65
2021/03/14 13:23:49;;;;;;;3.40;1.00;;;;;;;;;;4981545;28;20061;-64
2021/03/14 13:26:16;;;;;;;3.58;1.20;;;;;;;;;;4990246;28;20077;-64
2021/03/14 13:28:43;;;;;;;1.67;0.88;;;;;;;;;;4994413;28;20108;-64
2021/03/14 13:31:11;;;;;;;1.67;0.90;;;;;;;;;;4991771;28;20089;-64
2021/03/14 13:33:39;;;;;;;2.47;1.15;;;;;;;;;;4981912;28;20042;-64
2021/03/14 13:36:08;;;;;;;5.57;0.90;;;;;;;;;;4983704;28;20058;-64
2021/03/14 13:38:43;;;;;;;1.65;0.73;;;;;;;;;;4988045;28;20050;-65
2021/03/14 13:41:10;;;;;;;3.28;0.85;;;;;;;;;;4990153;28;20141;-64
2021/03/14 13:43:38;;;;;;;1.02;0.77;;;;;;;;;;4991538;28;20133;-65
2021/03/14 13:46:05;;;;;;;1.27;0.70;;;;;;;;;;4991994;28;20062;-64
2021/03/14 13:48:33;;;;;;;1.80;0.80;;;;;;;;;;4987832;28;20485;-64
2021/03/14 13:51:02;;;;;;;2.17;0.70;;;;;;;;;;4996459;28;20077;-71
2021/03/14 13:53:30;;;;;;;1.70;0.80;;;;;;;;;;4992278;28;20050;-71
2021/03/14 13:55:58;;;;;;;2.92;1.05;;;;;;;;;;5002804;28;20339;-70
2021/03/14 13:58:25;;;;;;;1.33;0.70;;;;;;;;;;5005728;28;20088;-70
2021/03/14 14:00:52;;;;;;;1.85;0.77;;;;;;;;;;4997963;28;20046;-71
2021/03/14 14:03:20;;;;;;;4.70;1.10;;;;;;;;;;5013588;28;20086;-71
2021/03/14 14:05:48;;;;;;;3.15;1.20;;;;;;;;;;4981240;28;20049;-71
2021/03/14 14:08:19;;;;;;;2.03;1.48;;;;;;;;;;4985333;28;20057;-71
2021/03/14 14:10:48;;;;;;;2.17;0.85;;;;;;;;;;4991756;28;20051;-71
2021/03/14 14:13:16;;;;;;;1.50;0.90;;;;;;;;;;4986677;28;20053;-71
2021/03/14 14:15:43;;;;;;;1.88;1.00;;;;;;;;;;4993318;28;20065;-71
2021/03/14 14:18:11;;;;;;;3.50;0.90;;;;;;;;;;4991468;28;20074;-71
2021/03/14 14:20:41;;;;;;;1.13;0.80;;;;;;;;;;4993731;28;20050;-71
2021/03/14 14:23:09;;;;;;;1.13;0.70;;;;;;;;;;4993740;28;20047;-71
2021/03/14 14:25:36;;;;;;;3.20;0.95;;;;;;;;;;4995313;28;20450;-71
2021/03/14 14:28:05;;;;;;;1.77;0.93;;;;;;;;;;5007545;28;20058;-70
2021/03/14 14:30:32;;;;;;;2.58;0.80;;;;;;;;;;5008770;28;20045;-71
2021/03/14 14:33:00;;;;;;;2.58;0.70;;;;;;;;;;4996175;28;20479;-72
2021/03/14 14:35:28;;;;;;;1.40;0.65;;;;;;;;;;4987217;28;20464;-71
2021/03/14 14:37:55;;;;;;;1.42;0.70;;;;;;;;;;4983762;28;20050;-71
2021/03/14 14:40:22;;;;;;;3.50;1.10;;;;;;;;;;4989590;28;20093;-71
2021/03/14 14:42:51;;;;;;;3.10;0.80;;;;;;;;;;4989953;28;20136;-71
2021/03/14 14:45:23;;;;;;;1.85;0.80;;;;;;;;;;4983542;28;20055;-70
2021/03/14 14:47:51;;;;;;;1.42;0.63;;;;;;;;;;4979536;28;20109;-70
2021/03/14 14:50:18;;;;;;;1.65;0.90;;;;;;;;;;4989107;28;20573;-70
2021/03/14 14:52:46;;;;;;;5.15;0.85;;;;;;;;;;4990810;28;20050;-70
2021/03/14 14:55:14;;;;;;;3.78;0.90;;;;;;;;;;4984273;28;20073;-70